Time;durP1;ratioP1;P1;durP2;ratioP2;P2;SDS_P1;SDS_P2;PMS_P1;PMS_P2;Temp;Humidity;BMP_temperature;BMP_pressure;BME280_temperature;BME280_humidity;BME280_pressure;Samples;Min_cycle;Max_cycle;Signal;HPM_P1;HPM_P2
2022/01/17 07:35:39;;;;;;;27.92;4.40;;;;;;;3.97;100.00;102882.41;5034467;27;3614876;-69
2022/01/17 07:38:06;;;;;;;21.35;3.97;;;;;;;3.73;100.00;102817.72;5097197;27;20474;-74
2022/01/17 07:40:34;;;;;;;29.25;4.35;;;;;;;4.62;100.00;102926.91;5108523;28;20024;-74
2022/01/17 07:43:01;;;;;;;34.17;4.78;;;;;;;4.71;100.00;102927.50;5097156;28;20039;-74
2022/01/17 07:45:30;;;;;;;21.35;4.00;;;;;;;4.25;100.00;102836.38;5083313;28;20036;-73
2022/01/17 07:48:08;;;;;;;34.53;6.50;;;;;;;4.37;100.00;102847.34;5086321;28;20024;-74
2022/01/17 07:50:35;;;;;;;28.83;4.68;;;;;;;4.30;100.00;102842.34;5123122;28;20024;-75
2022/01/17 07:53:01;;;;;;;36.92;11.75;;;;;;;4.45;100.00;102818.38;5139355;27;20020;-73
2022/01/17 07:55:28;;;;;;;50.67;16.42;;;;;;;4.89;100.00;102901.72;5095261;28;20032;-74
2022/01/17 07:57:56;;;;;;;44.15;13.80;;;;;;;4.94;100.00;102876.25;5114668;28;20085;-74
2022/01/17 08:00:25;;;;;;;31.60;6.97;;;;;;;5.32;100.00;102958.03;5104319;27;20020;-75
2022/01/17 08:02:53;;;;;;;23.58;4.90;;;;;;;4.99;100.00;102913.59;5133422;27;20109;-75
2022/01/17 08:05:19;;;;;;;27.00;4.38;;;;;;;5.14;100.00;102941.97;5115582;27;20048;-75
2022/01/17 08:07:45;;;;;;;21.65;4.22;;;;;;;3.93;100.00;102728.31;5113971;28;20118;-75
2022/01/17 08:10:12;;;;;;;18.10;4.13;;;;;;;4.53;100.00;102799.81;5108991;27;20093;-75
2022/01/17 08:12:41;;;;;;;27.80;4.13;;;;;;;5.28;100.00;102948.56;5132090;27;20106;-77
2022/01/17 08:15:07;;;;;;;24.52;3.80;;;;;;;5.22;100.00;102933.88;5123328;27;20023;-75
2022/01/17 08:17:34;;;;;;;21.70;3.53;;;;;;;5.35;100.00;102945.69;5128190;27;20752;-76
2022/01/17 08:19:59;;;;;;;26.20;3.70;;;;;;;4.24;100.00;102756.19;5115290;27;20045;-77
2022/01/17 08:22:25;;;;;;;23.02;3.92;;;;;;;4.93;100.00;102864.91;5113334;27;20023;-77
2022/01/17 08:24:50;;;;;;;38.53;6.55;;;;;;;4.87;100.00;102883.41;5092231;27;20012;-75
2022/01/17 08:27:17;;;;;;;29.60;5.57;;;;;;;4.95;100.00;102891.91;5098383;27;20377;-75
2022/01/17 08:29:43;;;;;;;25.75;4.13;;;;;;;5.33;100.00;102926.53;5111569;27;20015;-74
2022/01/17 08:32:09;;;;;;;30.95;4.30;;;;;;;4.71;100.00;102835.03;5125370;27;20011;-74
2022/01/17 08:34:34;;;;;;;20.60;4.10;;;;;;;5.02;100.00;102890.81;5113518;28;20044;-74
2022/01/17 08:37:02;;;;;;;43.33;11.50;;;;;;;4.50;100.00;102768.53;5109319;27;20039;-76
2022/01/17 08:39:28;;;;;;;30.13;5.50;;;;;;;5.66;100.00;102965.72;5099221;27;20123;-75
2022/01/17 08:41:59;;;;;;;49.80;16.60;;;;;;;5.43;100.00;102912.25;5110951;27;20083;-76
2022/01/17 08:44:25;;;;;;;28.52;5.32;;;;;;;5.31;100.00;102872.47;5106643;27;20023;-76
2022/01/17 08:46:52;;;;;;;26.27;5.53;;;;;;;4.59;100.00;102752.53;5129935;27;20069;-76
2022/01/17 08:49:25;;;;;;;31.58;4.93;;;;;;;5.52;100.00;102937.34;5099868;28;20020;-76
2022/01/17 08:51:50;;;;;;;27.48;4.57;;;;;;;5.38;100.00;102906.31;5089502;28;20028;-76
2022/01/17 08:54:16;;;;;;;23.40;5.03;;;;;;;5.47;100.00;102935.75;5098621;28;20024;-76
2022/01/17 08:56:42;;;;;;;28.88;4.78;;;;;;;5.33;100.00;102886.41;5127572;27;20023;-77
2022/01/17 08:59:09;;;;;;;32.30;5.22;;;;;;;5.31;100.00;102889.06;5113269;27;20030;-75
2022/01/17 09:01:38;;;;;;;30.10;4.80;;;;;;;5.38;100.00;102900.19;5099782;28;20019;-76
2022/01/17 09:04:09;;;;;;;27.05;4.63;;;;;;;5.03;100.00;102849.78;5091926;28;20082;-77
2022/01/17 09:06:35;;;;;;;23.13;4.13;;;;;;;4.89;100.00;102842.34;5075401;28;20024;-77
2022/01/17 09:09:01;;;;;;;26.73;4.50;;;;;;;4.66;100.00;102792.47;5115498;28;20034;-74
2022/01/17 09:15:07;;;;;;;36.63;6.47;;;;;;;4.83;100.00;102803.25;5133088;27;20047;-75
2022/01/17 09:17:36;;;;;;;35.03;5.90;;;;;;;4.73;100.00;102804.47;5099600;28;20023;-79
2022/01/17 09:20:03;;;;;;;38.75;9.48;;;;;;;5.94;100.00;102993.69;5083329;28;20019;-76
2022/01/17 09:22:29;;;;;;;31.98;4.85;;;;;;;5.39;100.00;102909.78;5085053;27;20024;-77
2022/01/17 09:24:55;;;;;;;41.97;11.13;;;;;;;5.84;100.00;102959.88;5132286;27;20016;-75
2022/01/17 09:27:21;;;;;;;26.30;4.05;;;;;;;5.06;100.00;102805.16;5118002;28;20042;-74
2022/01/17 09:29:47;;;;;;;25.90;4.53;;;;;;;5.40;100.00;102893.16;5113461;28;20461;-75
2022/01/17 09:32:14;;;;;;;33.05;5.10;;;;;;;5.58;100.00;102925.78;5091409;28;20020;-75
2022/01/17 09:34:46;;;;;;;24.70;4.07;;;;;;;6.04;100.00;103029.22;5090208;28;20048;-75
2022/01/17 09:37:14;;;;;;;24.35;4.03;;;;;;;5.62;100.00;102932.66;5072919;28;20054;-75
2022/01/17 09:39:40;;;;;;;22.13;3.67;;;;;;;6.09;100.00;103006.34;5084004;28;20028;-76
2022/01/17 09:42:06;;;;;;;22.92;4.50;;;;;;;5.60;100.00;102900.38;5082244;28;20025;-76
2022/01/17 09:44:33;;;;;;;24.30;5.20;;;;;;;5.63;100.00;102901.16;5101881;28;20031;-76
2022/01/17 09:47:08;;;;;;;31.17;4.78;;;;;;;6.17;100.00;103008.69;5102798;28;20024;-76
2022/01/17 09:49:41;;;;;;;42.85;9.48;;;;;;;6.20;100.00;102988.47;5082843;28;20036;-76
2022/01/17 09:52:33;;;;;;;70.93;17.75;;;;;;;6.39;100.00;103035.09;5082574;28;20050;-76
2022/01/17 09:55:08;;;;;;;71.35;15.98;;;;;;;5.53;100.00;102876.13;5083931;28;20081;-76
2022/01/17 09:58:07;;;;;;;32.83;5.65;;;;;;;6.37;100.00;103026.41;5099274;28;20105;-74
2022/01/17 10:00:39;;;;;;;40.88;6.68;;;;;;;6.06;100.00;102982.81;5001689;28;20057;-76
2022/01/17 10:03:12;;;;;;;34.53;6.20;;;;;;;5.97;100.00;102989.22;5002438;28;20096;-76
2022/01/17 10:05:38;;;;;;;32.70;5.60;;;;;;;6.24;100.00;103028.56;5002326;28;20049;-76
2022/01/17 10:08:15;;;;;;;25.73;3.92;;;;;;;5.78;100.00;102965.31;5003626;28;20032;-76
2022/01/17 10:11:15;;;;;;;29.88;4.20;;;;;;;6.35;100.00;103067.56;4988515;28;20034;-76
2022/01/17 10:13:48;;;;;;;27.50;3.80;;;;;;;5.80;100.00;102984.47;5002242;28;20038;-76
2022/01/17 10:16:24;;;;;;;34.40;4.20;;;;;;;5.95;100.00;102975.31;4986340;28;20034;-76
2022/01/17 10:18:58;;;;;;;25.70;3.38;;;;;;;6.04;100.00;102996.00;5018177;28;20337;-76
2022/01/17 10:21:41;;;;;;;26.52;4.10;;;;;;;6.30;100.00;103070.34;5003251;28;20030;-76
2022/01/17 10:24:57;;;;;;;21.98;3.42;;;;;;;6.37;100.00;103071.00;4991387;28;20034;-76
2022/01/17 10:27:45;;;;;;;31.20;4.25;;;;;;;6.37;100.00;103071.00;5000744;28;20041;-76
2022/01/17 10:35:57;;;;;;;19.70;3.63;;;;;;;5.42;100.00;102923.63;5030001;28;20077;-76
2022/01/17 10:38:27;;;;;;;24.58;3.22;;;;;;;6.47;100.00;103091.66;5032068;28;20061;-76
2022/01/17 10:41:05;;;;;;;26.88;3.50;;;;;;;6.04;100.00;103001.25;5022712;28;20542;-76
2022/01/17 10:43:39;;;;;;;26.95;3.15;;;;;;;6.57;100.00;103072.97;5044812;28;20033;-76
2022/01/17 10:46:12;;;;;;;27.17;3.20;;;;;;;6.72;100.00;103069.81;5034329;28;20033;-76
2022/01/17 10:48:45;;;;;;;27.00;3.08;;;;;;;6.40;100.00;103002.66;5043436;28;20718;-76
2022/01/17 10:51:12;;;;;;;26.15;3.17;;;;;;;5.86;100.00;102917.91;5005271;28;20037;-76
2022/01/17 10:53:41;;;;;;;23.50;3.33;;;;;;;6.23;100.00;102974.38;5020866;28;20044;-76
2022/01/17 10:56:13;;;;;;;24.90;3.58;;;;;;;6.82;100.00;103033.59;5038140;28;20032;-76
2022/01/17 10:58:43;;;;;;;21.25;2.97;;;;;;;6.87;100.00;103078.94;5021875;28;20029;-76
2022/01/17 11:01:12;;;;;;;22.33;3.40;;;;;;;6.32;100.00;102966.19;5022390;28;20500;-76
2022/01/17 11:03:42;;;;;;;25.90;3.15;;;;;;;6.72;100.00;103022.53;5023835;28;20057;-76
2022/01/17 11:06:10;;;;;;;22.20;3.58;;;;;;;6.26;100.00;102938.38;5045929;28;20029;-77
2022/01/17 11:08:36;;;;;;;27.13;3.42;;;;;;;7.26;100.00;103086.31;5102271;28;20020;-76
2022/01/17 11:11:06;;;;;;;21.98;3.00;;;;;;;7.24;100.00;103093.38;5084075;28;20028;-76
2022/01/17 11:13:33;;;;;;;22.17;3.30;;;;;;;7.31;100.00;103113.28;5082657;28;20019;-76
2022/01/17 11:16:04;;;;;;;24.23;3.25;;;;;;;7.03;100.00;103068.75;5082384;28;20036;-76
2022/01/17 11:18:31;;;;;;;28.00;2.97;;;;;;;6.98;100.00;103037.41;5081435;28;20083;-76
2022/01/17 11:20:59;;;;;;;20.95;2.90;;;;;;;7.13;100.00;103099.06;5066592;28;20024;-76
2022/01/17 11:23:28;;;;;;;28.52;2.88;;;;;;;7.14;100.00;103113.03;5067341;28;20020;-76
2022/01/17 11:25:59;;;;;;;27.88;3.38;;;;;;;6.58;100.00;103040.56;5082507;28;20401;-77
2022/01/17 11:28:28;;;;;;;24.50;2.80;;;;;;;6.51;100.00;103058.28;5081507;28;20058;-76
2022/01/17 11:31:04;;;;;;;16.75;3.08;;;;;;;6.49;100.00;103025.97;5080465;28;20020;-76
2022/01/17 11:33:35;;;;;;;24.48;3.13;;;;;;;6.39;100.00;103025.44;5063779;28;20054;-76
2022/01/17 11:36:05;;;;;;;31.33;4.07;;;;;;;7.05;100.00;103112.44;5099714;28;20047;-76
2022/01/17 11:38:42;;;;;;;24.10;3.10;;;;;;;6.65;100.00;103047.31;5085091;28;20085;-76
2022/01/17 11:41:35;;;;;;;30.60;3.72;;;;;;;7.14;100.00;103118.28;5114261;28;20083;-78
2022/01/17 11:44:05;;;;;;;32.00;3.53;;;;;;;6.11;100.00;102931.06;5007193;28;20030;-76
2022/01/17 11:46:33;;;;;;;22.08;3.03;;;;;;;7.20;100.00;103125.94;4990364;28;20144;-74
2022/01/17 11:49:02;;;;;;;19.33;3.03;;;;;;;7.09;100.00;103114.06;5001908;28;20033;-77
2022/01/17 11:51:54;;;;;;;33.08;3.50;;;;;;;6.95;100.00;103123.31;5000264;28;20026;-76
2022/01/17 11:54:25;;;;;;;30.02;3.90;;;;;;;6.55;100.00;103062.53;4996046;28;20112;-76
2022/01/17 11:57:03;;;;;;;20.88;4.18;;;;;;;6.91;100.00;103109.44;4982363;28;20063;-75
2022/01/17 11:59:51;;;;;;;26.30;3.35;;;;;;;7.01;100.00;103131.00;5014735;28;20061;-74
2022/01/17 12:02:29;;;;;;;25.20;3.85;;;;;;;7.26;100.00;103118.69;5015302;28;20049;-75
2022/01/17 12:05:07;;;;;;;25.63;3.63;;;;;;;7.18;100.00;103143.56;4999420;28;20022;-74
2022/01/17 12:07:54;;;;;;;20.92;3.53;;;;;;;7.17;100.00;103147.94;5014716;28;20030;-75
2022/01/17 12:10:38;;;;;;;26.15;3.45;;;;;;;6.82;100.00;103086.13;5006884;28;20077;-76
2022/01/17 12:13:20;;;;;;;22.50;3.50;;;;;;;7.13;100.00;103145.47;5020798;28;20026;-76
2022/01/17 12:16:11;;;;;;;25.80;3.40;;;;;;;7.02;100.00;103137.97;5018591;28;20022;-75
2022/01/17 12:18:50;;;;;;;27.30;3.33;;;;;;;7.21;100.00;103130.31;5016383;28;20113;-76
2022/01/17 12:21:35;;;;;;;29.45;3.55;;;;;;;7.16;100.00;103116.47;5064242;28;20043;-75
2022/01/17 12:24:22;;;;;;;31.90;3.70;;;;;;;7.35;100.00;103106.16;5121771;28;20020;-77
2022/01/17 12:26:54;;;;;;;29.02;3.25;;;;;;;7.24;100.00;103104.75;5080007;28;20016;-74
2022/01/17 12:29:38;;;;;;;22.08;3.20;;;;;;;6.80;100.00;103017.91;5078376;28;20035;-75
2022/01/17 12:32:29;;;;;;;28.70;3.78;;;;;;;6.76;100.00;103031.19;5101326;28;20081;-74
2022/01/17 12:35:11;;;;;;;21.02;3.22;;;;;;;6.57;100.00;103038.84;5073514;28;20040;-74
2022/01/17 12:37:42;;;;;;;21.92;2.75;;;;;;;7.03;100.00;103134.44;5068014;28;20032;-75
2022/01/17 12:40:16;;;;;;;30.33;3.35;;;;;;;7.03;100.00;103147.56;5111789;28;20457;-76
2022/01/17 12:43:08;;;;;;;25.00;3.45;;;;;;;7.09;100.00;103145.59;5123745;27;20060;-78
2022/01/17 12:45:42;;;;;;;26.42;3.60;;;;;;;6.68;100.00;103100.59;5085806;28;20088;-76
2022/01/17 12:48:11;;;;;;;25.48;3.60;;;;;;;6.46;100.00;103055.81;5105274;28;20027;-77
2022/01/17 12:50:39;;;;;;;28.02;3.30;;;;;;;6.66;100.00;103057.75;5123875;28;20117;-76
2022/01/17 12:53:07;;;;;;;32.67;3.30;;;;;;;6.53;100.00;103056.47;5121471;28;20339;-75
2022/01/17 12:55:39;;;;;;;24.20;3.90;;;;;;;7.11;100.00;103121.91;5101706;28;20043;-75
2022/01/17 12:58:14;;;;;;;26.15;3.22;;;;;;;7.19;100.00;103130.34;5107167;28;20032;-77
2022/01/17 13:00:43;;;;;;;;;;;;;;;7.19;100.00;103135.59;5100008;28;20558;-76
2022/01/17 13:03:09;;;;;;;24.58;3.40;;;;;;;6.94;100.00;103092.72;5091527;27;19920;-75
2022/01/17 13:05:38;;;;;;;25.83;3.35;;;;;;;6.32;100.00;102984.56;5099753;28;20114;-75
2022/01/17 13:08:06;;;;;;;30.45;4.20;;;;;;;7.02;100.00;103103.84;5096694;28;20019;-75
2022/01/17 13:10:33;;;;;;;26.70;3.53;;;;;;;6.44;100.00;102997.25;5096852;28;20024;-76
2022/01/17 13:16:40;;;;;;;40.78;8.60;;;;;;;7.62;100.00;103141.94;5119442;28;20050;-73
2022/01/17 13:19:10;;;;;;;37.20;4.43;;;;;;;7.56;100.00;103157.09;5100672;28;20031;-73
2022/01/17 13:21:38;;;;;;;27.33;3.90;;;;;;;6.94;100.00;103054.16;5101678;28;20028;-74
2022/01/17 13:24:16;;;;;;;29.70;4.00;;;;;;;6.42;100.00;102988.56;5070517;28;20134;-76
2022/01/17 13:26:48;;;;;;;27.50;5.47;;;;;;;7.56;100.00;103141.31;5086749;28;20024;-77
2022/01/17 13:29:14;;;;;;;34.47;4.53;;;;;;;7.65;100.00;103139.22;5088374;28;20031;-75
2022/01/17 13:31:41;;;;;;;31.80;4.20;;;;;;;7.47;100.00;103061.00;5103503;28;20016;-74
2022/01/17 13:34:16;;;;;;;30.42;3.85;;;;;;;7.78;100.00;103134.34;5089074;28;20088;-75
2022/01/17 13:36:47;;;;;;;27.25;3.95;;;;;;;7.92;100.00;103132.03;5105475;28;20044;-74
2022/01/17 13:39:18;;;;;;;30.75;4.55;;;;;;;8.10;100.00;103121.72;5072140;28;20043;-75
2022/01/17 13:41:52;;;;;;;25.90;3.40;;;;;;;8.07;100.00;103106.06;5090524;28;20026;-76
2022/01/17 13:44:23;;;;;;;31.55;5.78;;;;;;;8.11;100.00;103134.81;5102716;28;20027;-73
2022/01/17 13:47:01;;;;;;;30.35;5.68;;;;;;;7.69;100.00;103085.56;5084092;28;20035;-78
2022/01/17 13:49:31;;;;;;;38.60;5.03;;;;;;;8.15;100.00;103146.06;5101355;28;20061;-75
2022/01/17 13:52:00;;;;;;;36.25;4.55;;;;;;;7.29;100.00;103039.75;5102310;28;20045;-79
2022/01/17 13:58:12;;;;;;;27.90;4.53;;;;;;;7.70;100.00;103124.13;4981021;28;20038;-75
2022/01/17 14:00:42;;;;;;;28.55;4.40;;;;;;;7.90;100.00;103177.72;4980251;28;20436;-75
2022/01/17 14:03:09;;;;;;;32.67;4.15;;;;;;;8.21;100.00;103202.88;4997505;28;20038;-75
2022/01/17 14:05:41;;;;;;;27.15;4.82;;;;;;;6.92;100.00;102976.34;5000540;28;20493;-75
2022/01/17 14:08:15;;;;;;;39.42;7.00;;;;;;;8.15;100.00;103181.16;4989460;28;20378;-76
2022/01/17 14:11:00;;;;;;;55.88;11.93;;;;;;;8.11;100.00;103160.28;4968746;28;20026;-74
2022/01/17 14:17:07;;;;;;;32.67;4.47;;;;;;;7.09;100.00;103039.63;5005830;28;20033;-80
2022/01/17 14:19:52;;;;;;;32.70;3.92;;;;;;;8.15;100.00;103152.22;4990464;28;20054;-81
2022/01/17 14:22:19;;;;;;;26.85;4.00;;;;;;;7.21;100.00;103020.78;5009682;28;20034;-80
2022/01/17 14:24:48;;;;;;;35.40;4.65;;;;;;;7.32;100.00;102983.59;4997136;28;20045;-81
2022/01/17 14:27:25;;;;;;;27.70;3.95;;;;;;;7.65;100.00;103049.81;4977274;28;20030;-80
2022/01/17 14:30:00;;;;;;;28.98;4.20;;;;;;;7.71;100.00;103132.84;4992227;28;20052;-80
2022/01/17 14:32:33;;;;;;;33.50;4.43;;;;;;;7.35;100.00;103067.56;5012554;28;20042;-80
2022/01/17 14:35:08;;;;;;;33.00;4.10;;;;;;;6.94;100.00;103034.94;5071639;28;20044;-79
2022/01/17 14:37:36;;;;;;;32.53;4.38;;;;;;;6.83;100.00;103045.81;5093587;28;20048;-77
2022/01/17 14:40:05;;;;;;;35.30;6.57;;;;;;;6.85;100.00;103022.97;5105625;28;20031;-75
2022/01/17 14:42:40;;;;;;;32.60;5.30;;;;;;;7.28;100.00;103098.47;5105734;28;20035;-76
2022/01/17 14:45:16;;;;;;;32.15;4.32;;;;;;;7.19;100.00;103132.97;5104637;28;20044;-75
2022/01/17 14:47:48;;;;;;;24.50;4.20;;;;;;;7.35;100.00;103190.25;5097501;28;20020;-74
2022/01/17 14:50:17;;;;;;;32.10;4.22;;;;;;;7.58;100.00;103199.97;5098748;28;20047;-74
2022/01/17 14:52:43;;;;;;;31.90;3.42;;;;;;;6.76;100.00;103088.97;5096822;28;20039;-74
2022/01/17 15:00:38;;;;;;;30.58;4.38;;;;;;;6.42;100.00;103090.09;5098008;28;20105;-74
2022/01/17 15:03:12;;;;;;;27.95;3.90;;;;;;;7.08;100.00;103230.56;5097246;28;20020;-75
2022/01/17 15:05:39;;;;;;;34.70;3.67;;;;;;;6.75;100.00;103184.41;5098060;28;20031;-74
2022/01/17 15:08:12;;;;;;;36.72;4.53;;;;;;;7.08;100.00;103269.13;5098238;28;20028;-77
2022/01/17 15:10:39;;;;;;;38.13;4.47;;;;;;;6.76;100.00;103189.59;5080442;28;20027;-76
2022/01/17 15:13:09;;;;;;;42.75;4.50;;;;;;;7.10;100.00;103275.19;5096788;28;20515;-75
2022/01/17 15:15:43;;;;;;;28.35;4.40;;;;;;;6.89;100.00;103264.47;5096534;28;20032;-76
2022/01/17 15:18:13;;;;;;;38.92;4.90;;;;;;;6.07;100.00;103103.44;5062363;28;20058;-75
2022/01/17 15:20:41;;;;;;;32.92;4.18;;;;;;;6.80;100.00;103206.97;5096573;28;20023;-75
2022/01/17 15:23:08;;;;;;;47.65;9.55;;;;;;;6.58;100.00;103214.69;5081078;28;20028;-74
2022/01/17 15:25:33;;;;;;;59.72;14.32;;;;;;;6.75;100.00;103177.38;5097844;28;20024;-76
2022/01/17 15:28:00;;;;;;;37.83;6.32;;;;;;;6.08;100.00;103112.16;5063335;28;20111;-73
2022/01/17 15:30:32;;;;;;;34.42;4.75;;;;;;;6.74;100.00;103228.19;5078509;28;20042;-74
2022/01/17 15:33:01;;;;;;;28.58;4.07;;;;;;;6.39;100.00;103161.06;5096651;28;20024;-74
2022/01/17 15:35:28;;;;;;;36.90;4.53;;;;;;;7.05;100.00;103283.22;5095887;28;20048;-75
2022/01/17 15:37:55;;;;;;;36.45;4.80;;;;;;;6.72;100.00;103232.63;5079207;28;20054;-74
2022/01/17 15:40:51;;;;;;;34.42;5.78;;;;;;;6.32;100.00;103139.41;5081083;28;20046;-75
2022/01/17 15:43:21;;;;;;;38.30;4.20;;;;;;;6.71;100.00;103237.94;5082973;28;20040;-74
2022/01/17 15:45:46;;;;;;;35.63;4.78;;;;;;;7.02;100.00;103285.94;5100957;28;20054;-73
2022/01/17 15:48:14;;;;;;;40.40;5.10;;;;;;;6.37;100.00;103229.31;5097668;28;20454;-74
2022/01/17 15:50:39;;;;;;;41.17;4.25;;;;;;;6.68;100.00;103284.38;5102345;28;20016;-74
2022/01/17 15:53:05;;;;;;;32.38;4.55;;;;;;;6.85;100.00;103296.13;5106286;28;20153;-74
2022/01/17 15:55:30;;;;;;;41.53;4.43;;;;;;;6.25;100.00;103200.84;5109863;28;20043;-76
2022/01/17 15:57:56;;;;;;;35.38;4.25;;;;;;;6.21;100.00;103199.22;5108508;28;20407;-77
2022/01/17 16:00:22;;;;;;;33.05;4.60;;;;;;;6.15;100.00;103163.50;5111114;28;20039;-76
2022/01/17 16:02:47;;;;;;;31.52;4.10;;;;;;;6.36;100.00;103248.63;5110616;28;20039;-76
2022/01/17 16:05:14;;;;;;;37.83;4.43;;;;;;;6.45;100.00;103218.63;5108885;28;20032;-76
2022/01/17 16:07:40;;;;;;;30.95;3.95;;;;;;;6.78;100.00;103277.06;5103119;28;20039;-76
2022/01/17 16:10:22;;;;;;;;;;;;;;;;;;;;;
2022/01/17 16:12:48;;;;;;;35.88;5.05;;;;;;;6.47;100.00;103216.78;5110184;28;20020;-75
2022/01/17 16:15:14;;;;;;;31.83;4.47;;;;;;;5.82;100.00;103100.66;5086307;28;20043;-76
2022/01/17 16:17:41;;;;;;;34.90;4.55;;;;;;;6.80;100.00;103284.91;5102717;28;20084;-75
2022/01/17 16:20:07;;;;;;;42.22;5.13;;;;;;;5.56;100.00;103071.72;5103843;28;20043;-76
2022/01/17 16:22:35;;;;;;;38.58;5.15;;;;;;;5.98;100.00;103178.91;5101861;28;20030;-75
2022/01/17 16:25:04;;;;;;;33.97;4.45;;;;;;;6.27;100.00;103201.66;5102404;28;20024;-76
2022/01/17 16:27:30;;;;;;;38.53;4.85;;;;;;;6.33;100.00;103243.44;5100138;28;20086;-74
2022/01/17 16:29:57;;;;;;;46.65;4.60;;;;;;;6.75;100.00;103279.81;5098065;28;20048;-75
2022/01/17 16:32:23;;;;;;;35.80;4.38;;;;;;;6.29;100.00;103228.72;5098765;28;20051;-75
2022/01/17 16:34:49;;;;;;;41.83;4.82;;;;;;;6.77;100.00;103293.75;5104325;28;20151;-75
2022/01/17 16:37:20;;;;;;;43.17;5.07;;;;;;;6.83;100.00;103311.91;5112549;28;20042;-75
2022/01/17 16:39:45;;;;;;;43.42;4.25;;;;;;;6.89;100.00;103340.63;5123979;28;20024;-75
2022/01/17 16:42:12;;;;;;;31.95;4.63;;;;;;;6.87;100.00;103316.19;5121090;28;20157;-75
2022/01/17 16:44:38;;;;;;;43.53;5.05;;;;;;;5.73;100.00;103145.50;5085447;28;20031;-75
2022/01/17 16:47:04;;;;;;;34.38;4.40;;;;;;;6.80;100.00;103295.41;5101811;28;20015;-75
2022/01/17 16:49:30;;;;;;;38.53;5.53;;;;;;;5.96;100.00;103205.19;5100527;28;20112;-75
2022/01/17 16:51:57;;;;;;;36.10;4.70;;;;;;;5.92;100.00;103232.34;5119237;28;20055;-77
2022/01/17 16:54:23;;;;;;;40.97;5.18;;;;;;;5.90;100.00;103238.56;5101687;22;20053;-75
2022/01/17 16:56:50;;;;;;;25.13;4.00;;;;;;;6.33;100.00;103326.56;5067969;28;20032;-74
2022/01/17 16:59:15;;;;;;;34.50;5.10;;;;;;;5.61;100.00;103193.06;5068631;28;20020;-75
2022/01/17 17:01:41;;;;;;;43.38;5.57;;;;;;;6.50;100.00;103329.56;5034810;28;20027;-75
2022/01/17 17:04:07;;;;;;;34.85;5.80;;;;;;;5.93;100.00;103228.84;5049650;28;20505;-75
2022/01/17 17:06:33;;;;;;;43.50;4.50;;;;;;;5.92;100.00;103250.72;5047206;28;20509;-75
2022/01/17 17:08:59;;;;;;;45.65;4.95;;;;;;;5.71;100.00;103256.56;5048125;28;20054;-75
2022/01/17 17:11:24;;;;;;;38.50;4.75;;;;;;;5.73;100.00;103244.28;5048364;28;20052;-75
2022/01/17 17:13:50;;;;;;;41.78;4.97;;;;;;;6.51;100.00;103333.06;5051159;28;20025;-74
2022/01/17 17:16:19;;;;;;;48.83;6.05;;;;;;;6.33;100.00;103316.06;5049219;28;20031;-76
2022/01/17 17:18:47;;;;;;;40.08;5.93;;;;;;;5.73;100.00;103244.28;5074095;28;20168;-76
2022/01/17 17:21:15;;;;;;;40.10;4.47;;;;;;;5.27;100.00;103200.94;5055359;28;20032;-74
2022/01/17 17:24:08;;;;;;;49.92;5.10;;;;;;;6.53;100.00;103360.13;5052954;28;20023;-76
2022/01/17 17:26:35;;;;;;;34.35;4.90;;;;;;;6.74;100.00;103359.47;5049932;28;20028;-74
2022/01/17 17:29:01;;;;;;;36.30;4.60;;;;;;;6.16;100.00;103290.31;5051271;28;20112;-74
2022/01/17 17:31:27;;;;;;;32.50;4.50;;;;;;;6.52;100.00;103372.41;5033987;28;20538;-75
2022/01/17 17:33:56;;;;;;;37.75;6.93;;;;;;;6.51;100.00;103362.78;5052257;28;20025;-76
2022/01/17 17:36:22;;;;;;;39.33;5.22;;;;;;;5.41;100.00;103185.72;5032107;28;20429;-74
2022/01/17 17:38:48;;;;;;;34.78;5.70;;;;;;;5.85;100.00;103249.16;5083601;22;20048;-74
2022/01/17 17:41:14;;;;;;;49.20;5.65;;;;;;;6.51;100.00;103364.56;5052594;28;20040;-75
2022/01/17 17:43:41;;;;;;;26.80;4.75;;;;;;;5.80;100.00;103256.31;5072410;28;20312;-76
2022/01/17 17:46:06;;;;;;;37.20;6.00;;;;;;;5.34;100.00;103215.63;5070295;28;20019;-76
2022/01/17 17:48:32;;;;;;;43.53;5.38;;;;;;;6.05;100.00;103320.31;5049453;28;20028;-76
2022/01/17 17:50:59;;;;;;;46.58;5.35;;;;;;;6.02;100.00;103338.78;5079756;28;20016;-77
2022/01/17 17:53:27;;;;;;;45.60;5.88;;;;;;;5.83;100.00;103306.03;5066634;28;20355;-77
2022/01/17 17:55:53;;;;;;;39.90;5.55;;;;;;;6.21;100.00;103346.16;5067228;28;20044;-76
2022/01/17 17:58:19;;;;;;;42.08;5.50;;;;;;;6.75;100.00;103397.13;5067332;28;20028;-76
2022/01/17 18:00:47;;;;;;;37.28;4.93;;;;;;;5.50;100.00;103245.75;5066519;28;20028;-73
2022/01/17 18:03:12;;;;;;;37.22;4.97;;;;;;;6.39;100.00;103385.00;5064924;28;20028;-75
2022/01/17 18:05:39;;;;;;;36.67;5.18;;;;;;;6.20;100.00;103394.25;5070338;28;20055;-75
2022/01/17 18:08:06;;;;;;;35.25;5.05;;;;;;;5.29;100.00;103262.91;5073683;28;20457;-74
2022/01/17 18:10:31;;;;;;;39.97;5.43;;;;;;;6.43;100.00;103399.75;5088052;28;20607;-74
2022/01/17 18:13:02;;;;;;;45.15;5.30;;;;;;;5.82;100.00;103296.47;5051674;28;20043;-77
2022/01/17 18:15:33;;;;;;;43.00;5.00;;;;;;;6.20;100.00;103378.50;5071396;28;20028;-76
2022/01/17 18:18:01;;;;;;;53.30;5.50;;;;;;;5.38;100.00;103243.44;5056830;28;20044;-77
2022/01/17 18:20:27;;;;;;;38.20;5.50;;;;;;;6.31;100.00;103381.72;5069993;28;20032;-77
2022/01/17 18:22:52;;;;;;;46.17;6.50;;;;;;;6.34;100.00;103407.03;5055932;28;20024;-78
2022/01/17 18:25:18;;;;;;;42.03;4.82;;;;;;;6.04;100.00;103309.88;5068997;28;20032;-72
2022/01/17 18:27:43;;;;;;;47.38;5.65;;;;;;;5.76;100.00;103314.97;5051973;28;20086;-74
2022/01/17 18:30:10;;;;;;;43.58;5.32;;;;;;;6.01;100.00;103323.06;5044314;28;20029;-74
2022/01/17 18:32:37;;;;;;;40.78;5.40;;;;;;;5.85;100.00;103338.34;5077870;28;20086;-74
2022/01/17 18:35:04;;;;;;;51.40;6.22;;;;;;;5.21;100.00;103226.41;5064947;28;20085;-74
2022/01/17 18:37:30;;;;;;;45.20;5.20;;;;;;;6.25;100.00;103422.13;5068478;28;20119;-74
2022/01/17 18:39:58;;;;;;;51.65;5.22;;;;;;;5.68;100.00;103314.31;5060010;28;20060;-73
2022/01/17 18:42:24;;;;;;;52.50;5.60;;;;;;;6.21;100.00;103351.41;5048661;28;20036;-74
2022/01/17 18:44:50;;;;;;;45.13;8.32;;;;;;;6.22;100.00;103416.06;5068073;28;20081;-74
2022/01/17 18:47:17;;;;;;;39.85;5.90;;;;;;;6.12;100.00;103410.22;5042318;28;20043;-74
2022/01/17 18:49:44;;;;;;;47.13;5.18;;;;;;;6.35;100.00;103395.63;5072578;28;20030;-73
2022/01/17 18:52:17;;;;;;;41.88;5.80;;;;;;;5.86;100.00;103343.53;5062054;28;20055;-74
2022/01/17 18:54:42;;;;;;;48.00;5.88;;;;;;;6.14;100.00;103421.53;5085368;28;20039;-74
2022/01/17 18:57:49;;;;;;;35.92;5.70;;;;;;;6.22;100.00;103411.72;5076889;28;20021;-73
2022/01/17 19:00:21;;;;;;;52.35;5.80;;;;;;;6.16;100.00;103439.88;4970802;28;20030;-74
2022/01/17 19:02:51;;;;;;;40.88;4.60;;;;;;;6.20;100.00;103428.38;4973909;28;20476;-74
2022/01/17 19:05:17;;;;;;;45.90;6.28;;;;;;;6.14;100.00;103387.44;4974226;28;20255;-73
2022/01/17 19:07:43;;;;;;;40.95;5.75;;;;;;;6.57;100.00;103423.00;4955383;28;20105;-74
2022/01/17 19:10:09;;;;;;;38.88;5.55;;;;;;;6.19;100.00;103325.19;4988893;28;20034;-73
2022/01/17 19:12:35;;;;;;;34.75;5.07;;;;;;;5.97;100.00;103316.19;4979218;28;20050;-73
2022/01/17 19:15:01;;;;;;;43.25;5.60;;;;;;;6.47;100.00;103411.00;4958819;28;20031;-74
2022/01/17 19:17:37;;;;;;;36.78;4.53;;;;;;;5.52;100.00;103266.66;4946544;28;20038;-73
2022/01/17 19:20:25;;;;;;;40.53;5.20;;;;;;;5.91;100.00;103361.78;4992219;28;20030;-73
2022/01/17 19:22:51;;;;;;;48.67;5.68;;;;;;;6.29;100.00;103415.03;4984915;28;20045;-74
2022/01/17 19:25:22;;;;;;;38.08;5.35;;;;;;;5.95;100.00;103381.81;4979619;28;20035;-73
2022/01/17 19:31:55;;;;;;;44.63;5.25;;;;;;;6.48;100.00;103425.88;4981472;28;20086;-75
2022/01/17 19:34:21;;;;;;;35.92;5.28;;;;;;;5.60;100.00;103296.16;4956571;28;20023;-75
2022/01/17 19:36:50;;;;;;;40.28;6.05;;;;;;;5.98;100.00;103362.50;4982763;28;20022;-76
2022/01/17 19:39:21;;;;;;;43.15;5.93;;;;;;;5.53;100.00;103274.50;5014803;28;20161;-75